Time;durP1;ratioP1;P1;durP2;ratioP2;P2;SDS_P1;SDS_P2;PMS_P1;PMS_P2;Temp;Humidity;BMP_temperature;BMP_pressure;BME280_temperature;BME280_humidity;BME280_pressure;Samples;Min_cycle;Max_cycle;Signal;HPM_P1;HPM_P2
2021/08/19 00:00:52;;;;;;;1.80;1.50;;;24.00;55.00;;;;;;6174262;23;20531;-83
2021/08/19 00:03:18;;;;;;;1.30;1.20;;;24.00;55.10;;;;;;6173632;23;20156;-83
2021/08/19 00:05:43;;;;;;;1.50;1.40;;;24.00;55.00;;;;;;6200794;23;20168;-83
2021/08/19 00:08:09;;;;;;;1.30;1.20;;;24.00;55.00;;;;;;6173800;23;20156;-83
2021/08/19 00:10:35;;;;;;;1.10;1.00;;;24.00;55.00;;;;;;6174917;23;20176;-83
2021/08/19 00:13:00;;;;;;;1.50;1.10;;;24.00;55.00;;;;;;6200089;23;20227;-83
2021/08/19 00:15:27;;;;;;;3.00;1.20;;;24.00;55.10;;;;;;6198919;23;20223;-83
2021/08/19 00:17:53;;;;;;;1.77;1.23;;;24.00;55.00;;;;;;6173266;23;20175;-83
2021/08/19 00:20:19;;;;;;;1.60;1.40;;;24.00;55.10;;;;;;6173600;23;20375;-83
2021/08/19 00:22:44;;;;;;;1.40;1.20;;;24.00;55.10;;;;;;6201216;23;20154;-83
2021/08/19 00:25:10;;;;;;;1.30;1.20;;;24.00;55.00;;;;;;6173533;23;20885;-83
2021/08/19 00:27:36;;;;;;;1.33;1.20;;;24.00;55.00;;;;;;6174958;23;20159;-83
2021/08/19 00:30:02;;;;;;;1.37;1.20;;;24.00;55.00;;;;;;6201026;23;20155;-83
2021/08/19 00:32:28;;;;;;;1.23;1.13;;;24.00;55.10;;;;;;6199795;23;20422;-83
2021/08/19 00:34:54;;;;;;;1.53;1.40;;;24.00;55.00;;;;;;6199825;23;20394;-83
2021/08/19 00:37:20;;;;;;;1.20;1.10;;;24.00;55.00;;;;;;6198970;23;20368;-83
2021/08/19 00:39:46;;;;;;;1.40;1.30;;;24.00;55.00;;;;;;6199626;23;20147;-83
2021/08/19 00:42:17;;;;;;;1.20;1.03;;;24.00;55.00;;;;;;6200002;23;20211;-83
2021/08/19 00:44:44;;;;;;;1.23;1.13;;;24.00;55.00;;;;;;6173898;23;20386;-83
2021/08/19 00:47:10;;;;;;;1.20;1.00;;;24.00;55.00;;;;;;6199609;23;20375;-83
2021/08/19 00:49:38;;;;;;;1.17;1.07;;;24.00;55.00;;;;;;6201177;23;20434;-83
2021/08/19 00:52:05;;;;;;;1.73;1.20;;;24.00;55.10;;;;;;6173300;23;20459;-83
2021/08/19 00:54:31;;;;;;;1.63;1.23;;;24.00;55.10;;;;;;6173554;23;20462;-83
2021/08/19 00:57:00;;;;;;;1.67;1.33;;;24.00;55.60;;;;;;6199642;23;20382;-83
2021/08/19 00:59:43;;;;;;;1.40;1.30;;;24.00;55.10;;;;;;6174173;23;20158;-83
2021/08/19 01:02:09;;;;;;;1.40;1.30;;;24.00;55.10;;;;;;6174394;23;20406;-83
2021/08/19 01:04:42;;;;;;;1.30;1.20;;;23.90;55.00;;;;;;6199669;23;20375;-83
2021/08/19 01:07:09;;;;;;;1.10;0.90;;;24.00;55.10;;;;;;6173320;23;20412;-83
2021/08/19 01:09:35;;;;;;;1.50;1.40;;;24.00;55.10;;;;;;6173947;23;20383;-83
2021/08/19 01:12:03;;;;;;;1.30;1.10;;;24.00;55.10;;;;;;6174274;23;20427;-83
2021/08/19 01:14:30;;;;;;;1.63;1.40;;;24.00;55.10;;;;;;6200494;23;20371;-83
2021/08/19 01:16:56;;;;;;;1.63;1.10;;;24.00;55.10;;;;;;6199427;23;20402;-83
2021/08/19 01:19:23;;;;;;;1.33;1.13;;;24.00;55.10;;;;;;6172319;23;20379;-83
2021/08/19 01:21:49;;;;;;;1.43;1.10;;;24.00;55.10;;;;;;6172817;23;20876;-83
2021/08/19 01:24:15;;;;;;;1.60;1.20;;;24.00;55.10;;;;;;6173375;23;20387;-83
2021/08/19 01:26:41;;;;;;;1.30;1.20;;;24.00;55.10;;;;;;6199544;23;20734;-83
2021/08/19 01:29:08;;;;;;;1.23;1.00;;;24.00;55.10;;;;;;6197534;23;20152;-83
2021/08/19 01:31:35;;;;;;;1.50;1.20;;;24.00;55.10;;;;;;6172526;23;20388;-83
2021/08/19 01:34:01;;;;;;;1.50;1.40;;;24.00;55.10;;;;;;6198882;23;20372;-83
2021/08/19 01:36:26;;;;;;;1.50;1.17;;;23.90;55.00;;;;;;6172316;23;20394;-83
2021/08/19 01:38:53;;;;;;;1.70;1.60;;;24.00;55.10;;;;;;6198891;23;20391;-83
2021/08/19 01:41:19;;;;;;;1.30;1.20;;;24.00;55.10;;;;;;6172180;23;20159;-83
2021/08/19 01:43:49;;;;;;;1.67;1.30;;;23.90;55.00;;;;;;6199690;23;20371;-83
2021/08/19 01:46:15;;;;;;;1.30;1.20;;;24.00;55.10;;;;;;6172466;23;20390;-83
2021/08/19 01:48:42;;;;;;;1.30;1.07;;;23.90;55.00;;;;;;6172268;23;20390;-83
2021/08/19 01:51:19;;;;;;;1.50;1.20;;;23.90;55.00;;;;;;6172307;23;20406;-83
2021/08/19 01:53:49;;;;;;;1.30;1.00;;;24.00;55.10;;;;;;6173131;23;20379;-83
2021/08/19 01:56:22;;;;;;;1.13;1.03;;;23.90;55.00;;;;;;6199346;23;20378;-83
2021/08/19 01:58:48;;;;;;;2.10;1.50;;;23.90;55.00;;;;;;6172818;23;20465;-83
2021/08/19 02:01:19;;;;;;;1.37;1.27;;;23.90;55.00;;;;;;6172346;23;20842;-83
2021/08/19 02:03:44;;;;;;;1.73;1.30;;;24.00;55.10;;;;;;6175855;23;20402;-83
2021/08/19 02:06:10;;;;;;;2.40;1.40;;;23.90;55.00;;;;;;6201355;23;20387;-83
2021/08/19 02:08:36;;;;;;;1.20;1.10;;;23.90;55.00;;;;;;6174823;23;20242;-83
2021/08/19 02:11:01;;;;;;;1.47;1.27;;;23.90;55.00;;;;;;6203651;23;20147;-82
2021/08/19 02:13:27;;;;;;;1.10;0.90;;;23.90;55.00;;;;;;6174352;23;20187;-83
2021/08/19 02:15:53;;;;;;;1.27;1.17;;;23.90;55.00;;;;;;6199340;23;20151;-82
2021/08/19 02:18:18;;;;;;;1.43;1.17;;;24.00;55.10;;;;;;6199398;23;20147;-82
2021/08/19 02:20:44;;;;;;;1.30;1.10;;;23.90;55.00;;;;;;6199551;23;20155;-82
2021/08/19 02:23:10;;;;;;;1.43;1.20;;;23.90;55.00;;;;;;6200160;23;20159;-82
2021/08/19 02:25:35;;;;;;;1.30;1.20;;;23.90;55.10;;;;;;6200205;23;20151;-83
2021/08/19 02:28:01;;;;;;;1.33;1.10;;;23.90;55.00;;;;;;6174623;23;20179;-82
2021/08/19 02:30:27;;;;;;;1.20;1.10;;;23.90;55.10;;;;;;6173839;23;20162;-82
2021/08/19 02:32:56;;;;;;;1.70;1.30;;;23.90;55.10;;;;;;6200291;23;20182;-82
2021/08/19 02:35:23;;;;;;;1.30;1.20;;;23.90;55.00;;;;;;6199721;23;20458;-82
2021/08/19 02:37:48;;;;;;;1.63;1.27;;;23.90;55.10;;;;;;6173085;23;20691;-82
2021/08/19 02:40:14;;;;;;;1.27;1.00;;;23.90;55.10;;;;;;6173350;23;20382;-83
2021/08/19 02:42:40;;;;;;;1.10;0.93;;;23.90;55.10;;;;;;6199800;23;20170;-83
2021/08/19 02:45:06;;;;;;;1.27;1.17;;;23.90;55.10;;;;;;6199388;23;20375;-83
2021/08/19 02:47:32;;;;;;;1.37;1.27;;;23.90;55.10;;;;;;6172685;23;20630;-83
2021/08/19 02:49:57;;;;;;;1.40;1.30;;;23.90;55.60;;;;;;6172595;23;20158;-83
2021/08/19 02:55:45;;;;;;;1.50;1.20;;;24.00;55.10;;;;;;6203621;23;20159;-83
2021/08/19 02:58:11;;;;;;;1.23;1.13;;;23.90;55.10;;;;;;6174084;23;20379;-83
2021/08/19 03:00:36;;;;;;;1.23;1.13;;;23.90;55.10;;;;;;6203171;23;20159;-84
2021/08/19 03:03:02;;;;;;;1.40;1.30;;;23.90;55.10;;;;;;6202280;23;20662;-83
2021/08/19 03:05:28;;;;;;;1.37;1.10;;;23.90;55.10;;;;;;6192131;23;20492;-83
2021/08/19 03:07:54;;;;;;;2.50;1.23;;;23.90;55.10;;;;;;6257953;23;20155;-83
2021/08/19 03:10:19;;;;;;;1.43;1.33;;;23.90;55.10;;;;;;6230861;23;20158;-83
2021/08/19 03:12:45;;;;;;;1.27;1.10;;;23.90;55.10;;;;;;6228426;23;20204;-83
2021/08/19 03:15:11;;;;;;;1.50;1.20;;;23.90;55.10;;;;;;6229300;23;20645;-83
2021/08/19 03:17:36;;;;;;;1.50;1.20;;;23.90;55.10;;;;;;6228315;23;20159;-83
2021/08/19 03:20:03;;;;;;;1.53;1.43;;;23.90;55.10;;;;;;6228352;23;20210;-83
2021/08/19 03:22:28;;;;;;;1.50;1.40;;;23.90;55.10;;;;;;6227875;23;20161;-83
2021/08/19 03:24:54;;;;;;;1.07;0.90;;;23.90;55.10;;;;;;6229227;23;20378;-83
2021/08/19 03:27:20;;;;;;;2.20;1.40;;;23.90;55.10;;;;;;6229138;23;20190;-82
2021/08/19 03:29:46;;;;;;;1.23;1.13;;;23.90;55.10;;;;;;6252716;23;20167;-82
2021/08/19 03:32:11;;;;;;;1.30;1.10;;;23.90;55.10;;;;;;6227824;23;20190;-82
2021/08/19 03:34:37;;;;;;;1.30;1.00;;;23.90;55.10;;;;;;6254795;23;20242;-83
2021/08/19 03:37:06;;;;;;;1.30;1.13;;;23.90;55.10;;;;;;6253681;23;20175;-82
2021/08/19 03:39:31;;;;;;;2.70;1.30;;;23.90;55.10;;;;;;6229760;23;20150;-82
2021/08/19 03:41:57;;;;;;;1.20;1.10;;;23.90;55.10;;;;;;6229008;23;20390;-82
2021/08/19 03:44:23;;;;;;;1.43;1.10;;;23.90;55.20;;;;;;6228662;23;20157;-82
2021/08/19 03:46:48;;;;;;;1.20;1.00;;;23.90;55.20;;;;;;6230404;23;20151;-82
2021/08/19 03:49:14;;;;;;;1.53;1.43;;;23.90;55.10;;;;;;6230631;23;20157;-82
2021/08/19 03:55:04;;;;;;;1.30;1.10;;;23.90;55.10;;;;;;6231803;23;20345;-82
2021/08/19 03:57:29;;;;;;;1.70;1.30;;;23.80;55.10;;;;;;6232614;23;20404;-82
2021/08/19 03:59:55;;;;;;;2.20;1.30;;;23.90;55.20;;;;;;6234424;23;20374;-83
2021/08/19 04:02:21;;;;;;;1.40;1.20;;;23.90;55.20;;;;;;6232448;23;20146;-83
2021/08/19 04:04:47;;;;;;;1.20;1.10;;;23.90;55.20;;;;;;6257540;23;20165;-83
2021/08/19 04:07:12;;;;;;;1.30;1.20;;;23.90;55.20;;;;;;6179386;23;20159;-83
2021/08/19 04:09:38;;;;;;;1.40;1.20;;;23.90;55.20;;;;;;6202092;23;20148;-83
2021/08/19 04:12:04;;;;;;;1.30;1.10;;;23.90;55.20;;;;;;6177166;23;20210;-83
2021/08/19 04:14:31;;;;;;;1.80;0.87;;;23.90;55.20;;;;;;6203694;23;20155;-83
2021/08/19 04:16:57;;;;;;;1.50;1.30;;;23.90;55.20;;;;;;6177569;23;20173;-83
2021/08/19 04:19:23;;;;;;;1.47;1.30;;;23.90;55.20;;;;;;6175290;23;20380;-83
2021/08/19 04:21:49;;;;;;;1.40;1.13;;;23.90;55.20;;;;;;6201946;23;20697;-83
2021/08/19 04:24:15;;;;;;;1.20;1.10;;;23.90;55.20;;;;;;6174213;23;20156;-83
2021/08/19 04:26:41;;;;;;;1.43;1.30;;;23.90;55.20;;;;;;6201875;23;20371;-83
2021/08/19 04:29:07;;;;;;;1.87;1.30;;;23.90;55.30;;;;;;6201943;23;20461;-83
2021/08/19 04:31:32;;;;;;;2.00;1.40;;;23.90;55.20;;;;;;6175772;23;20536;-83
2021/08/19 04:33:58;;;;;;;1.23;1.10;;;23.90;55.30;;;;;;6175663;23;20159;-83
2021/08/19 04:36:24;;;;;;;1.83;1.07;;;23.90;55.30;;;;;;6175395;23;20159;-82
2021/08/19 04:38:49;;;;;;;1.93;1.20;;;23.90;55.30;;;;;;6176325;23;20159;-82
2021/08/19 04:41:15;;;;;;;1.50;1.37;;;23.90;55.30;;;;;;6175803;23;20160;-82
2021/08/19 04:43:41;;;;;;;1.30;1.20;;;23.90;55.30;;;;;;6202747;23;20155;-82
2021/08/19 04:46:06;;;;;;;1.27;1.17;;;23.80;55.20;;;;;;6176491;23;20156;-83
2021/08/19 04:48:32;;;;;;;1.57;1.40;;;23.90;55.30;;;;;;6203879;23;20163;-83
2021/08/19 04:50:58;;;;;;;1.30;1.20;;;23.90;55.30;;;;;;6178879;23;20661;-82
2021/08/19 04:53:23;;;;;;;1.90;1.17;;;23.90;55.30;;;;;;6176873;23;20275;-82
2021/08/19 04:55:49;;;;;;;1.63;1.27;;;23.90;55.30;;;;;;6180436;23;20156;-82
2021/08/19 04:58:15;;;;;;;1.20;1.03;;;23.80;55.30;;;;;;6178122;23;20152;-83
2021/08/19 05:00:40;;;;;;;1.30;1.20;;;23.80;55.20;;;;;;6201704;23;20155;-82
2021/08/19 05:03:06;;;;;;;1.40;1.27;;;23.80;55.30;;;;;;6179301;23;20156;-82
2021/08/19 05:05:32;;;;;;;1.97;1.10;;;23.80;55.30;;;;;;6203056;23;20163;-83
2021/08/19 05:07:57;;;;;;;1.40;1.30;;;23.90;55.30;;;;;;6200995;23;20170;-82
2021/08/19 05:10:23;;;;;;;1.27;1.17;;;23.80;55.30;;;;;;6175290;23;20170;-83
2021/08/19 05:12:49;;;;;;;1.40;1.30;;;23.80;55.30;;;;;;6178446;23;20179;-82
2021/08/19 05:15:15;;;;;;;2.60;1.40;;;23.80;55.30;;;;;;6203579;23;20155;-82
2021/08/19 05:17:40;;;;;;;1.30;1.20;;;23.80;55.30;;;;;;6204359;23;20207;-82
2021/08/19 05:20:07;;;;;;;1.40;1.23;;;23.80;55.30;;;;;;6179266;23;20156;-82
2021/08/19 05:22:32;;;;;;;1.70;1.40;;;23.80;55.30;;;;;;6204690;23;20155;-82
2021/08/19 05:28:21;;;;;;;2.60;1.50;;;23.90;55.40;;;;;;6210321;23;20140;-83
2021/08/19 05:30:54;;;;;;;1.57;1.47;;;23.80;55.50;;;;;;6184236;23;20379;-83
2021/08/19 05:33:20;;;;;;;2.07;1.27;;;23.80;55.40;;;;;;6182028;23;20469;-83
2021/08/19 05:35:46;;;;;;;1.57;1.30;;;23.80;55.40;;;;;;6159325;23;20387;-84
2021/08/19 05:38:14;;;;;;;1.30;1.20;;;23.80;55.40;;;;;;6209813;23;20451;-83
2021/08/19 05:40:41;;;;;;;1.80;1.70;;;23.80;55.40;;;;;;6159356;23;20387;-83
2021/08/19 05:43:10;;;;;;;1.43;1.33;;;23.80;55.40;;;;;;6183908;23;20386;-83
2021/08/19 05:45:36;;;;;;;1.57;1.40;;;23.80;55.40;;;;;;6209547;23;20376;-83
2021/08/19 05:48:05;;;;;;;2.00;1.67;;;23.80;55.40;;;;;;6209422;23;20385;-83
2021/08/19 05:50:33;;;;;;;1.40;1.27;;;23.80;55.50;;;;;;6210203;23;20168;-83
2021/08/19 05:52:59;;;;;;;1.40;1.30;;;23.80;55.50;;;;;;6184007;23;20422;-83
2021/08/19 05:55:25;;;;;;;1.60;1.50;;;23.80;55.50;;;;;;6183051;23;20387;-83
2021/08/19 05:58:17;;;;;;;1.63;1.50;;;23.80;55.50;;;;;;6209677;23;20144;-84
2021/08/19 06:01:08;;;;;;;;;;;;;;;;;;;;;
2021/08/19 06:04:25;;;;;;;1.80;1.50;;;23.80;55.40;;;;;;6119783;23;20417;-83
2021/08/19 06:07:22;;;;;;;1.30;1.20;;;23.80;55.50;;;;;;6118412;23;20449;-83
2021/08/19 06:09:57;;;;;;;2.03;1.70;;;23.80;56.10;;;;;;6118936;23;20453;-83
2021/08/19 06:12:23;;;;;;;1.50;1.40;;;23.80;55.50;;;;;;6119690;23;20417;-83
2021/08/19 06:14:51;;;;;;;2.37;1.43;;;23.80;55.60;;;;;;6095130;23;20389;-83
2021/08/19 06:17:19;;;;;;;1.50;1.40;;;23.80;55.50;;;;;;6118962;23;20377;-83
2021/08/19 06:19:54;;;;;;;2.57;1.33;;;23.80;55.40;;;;;;6094986;23;20388;-83
2021/08/19 06:22:20;;;;;;;1.80;1.57;;;23.80;55.50;;;;;;6120064;23;20418;-82
2021/08/19 06:24:55;;;;;;;1.80;1.70;;;23.80;55.50;;;;;;6095018;23;20374;-83
2021/08/19 06:27:21;;;;;;;1.70;1.60;;;23.80;55.50;;;;;;6094317;23;20381;-83
2021/08/19 06:29:46;;;;;;;1.80;1.70;;;23.80;55.50;;;;;;6119226;23;20389;-83
2021/08/19 06:32:12;;;;;;;1.80;1.70;;;23.80;55.50;;;;;;6094581;23;20192;-83
2021/08/19 06:34:38;;;;;;;1.70;1.50;;;23.80;55.50;;;;;;6094833;23;20161;-83
2021/08/19 06:37:04;;;;;;;2.20;1.60;;;23.80;55.50;;;;;;6094396;23;20181;-83
2021/08/19 06:39:32;;;;;;;1.63;1.53;;;23.80;55.50;;;;;;6118435;23;20213;-84
2021/08/19 06:42:00;;;;;;;1.80;1.70;;;23.80;55.50;;;;;;6118788;23;20386;-84
2021/08/19 06:44:26;;;;;;;1.70;1.50;;;23.80;55.50;;;;;;6094262;23;20460;-83
2021/08/19 06:46:54;;;;;;;1.80;1.50;;;23.80;55.40;;;;;;6118890;23;20393;-83
2021/08/19 06:49:20;;;;;;;1.70;1.60;;;23.80;55.50;;;;;;6118936;23;20170;-84
2021/08/19 06:52:13;;;;;;;;;;;;;;;;;;;;;
2021/08/19 06:54:40;;;;;;;2.00;1.80;;;23.90;55.50;;;;;;6096948;23;20157;-84
2021/08/19 06:57:17;;;;;;;2.40;2.00;;;23.80;55.50;;;;;;6118568;23;20378;-83
2021/08/19 06:59:44;;;;;;;2.20;1.67;;;23.80;55.50;;;;;;6118175;23;20381;-83
2021/08/19 07:02:30;;;;;;;1.80;1.70;;;23.80;55.50;;;;;;6094243;23;20425;-83
2021/08/19 07:04:57;;;;;;;1.93;1.83;;;23.80;55.50;;;;;;6120054;23;20354;-83
2021/08/19 07:07:28;;;;;;;1.80;1.70;;;23.80;55.50;;;;;;6139037;23;20863;-83
2021/08/19 07:10:26;;;;;;;2.10;1.63;;;23.80;55.50;;;;;;6120295;23;20997;-83
2021/08/19 07:12:53;;;;;;;2.20;2.00;;;23.80;55.50;;;;;;5981230;24;20425;-83
2021/08/19 07:15:24;;;;;;;1.80;1.70;;;23.80;55.50;;;;;;6004812;24;20392;-83
2021/08/19 07:17:50;;;;;;;2.30;2.07;;;23.80;56.10;;;;;;6004658;24;20425;-83
2021/08/19 07:20:17;;;;;;;1.80;1.70;;;23.80;55.50;;;;;;5981326;24;20453;-84
2021/08/19 07:22:45;;;;;;;2.20;2.10;;;23.90;55.70;;;;;;5980935;24;20167;-84
2021/08/19 07:25:12;;;;;;;2.17;1.90;;;23.90;55.60;;;;;;5981291;24;20453;-83
2021/08/19 07:27:40;;;;;;;2.20;2.00;;;23.90;55.60;;;;;;5957524;24;20402;-83
2021/08/19 07:30:09;;;;;;;1.80;1.70;;;23.90;55.60;;;;;;6002462;24;20382;-84
2021/08/19 07:32:46;;;;;;;2.13;1.97;;;23.90;55.50;;;;;;6002453;24;20421;-83
2021/08/19 07:35:18;;;;;;;2.03;1.83;;;23.90;55.60;;;;;;6003005;24;20381;-83
2021/08/19 07:37:52;;;;;;;2.23;2.03;;;23.90;55.50;;;;;;6003816;24;20389;-83
2021/08/19 07:40:23;;;;;;;2.40;2.20;;;23.90;55.60;;;;;;6004395;24;20393;-83
2021/08/19 07:42:54;;;;;;;2.43;2.23;;;23.90;55.60;;;;;;6003925;24;20405;-83
2021/08/19 07:45:34;;;;;;;;;;;;;;;;;;;;;
2021/08/19 07:48:22;;;;;;;2.50;2.20;;;23.90;55.60;;;;;;5983770;24;20377;-82
2021/08/19 07:50:52;;;;;;;2.00;1.90;;;23.90;55.60;;;;;;6119419;23;20362;-83
2021/08/19 07:53:21;;;;;;;2.27;2.07;;;23.90;55.60;;;;;;6117822;23;20433;-83
2021/08/19 07:55:48;;;;;;;1.97;1.83;;;23.90;55.60;;;;;;6095183;23;20386;-84
2021/08/19 07:58:14;;;;;;;1.83;1.73;;;23.90;55.60;;;;;;6094772;23;20447;-83
2021/08/19 08:00:40;;;;;;;1.60;1.50;;;23.90;55.60;;;;;;6094094;23;20386;-83
2021/08/19 08:03:06;;;;;;;2.90;2.20;;;23.90;55.60;;;;;;6094712;23;20450;-83
2021/08/19 08:05:34;;;;;;;2.37;2.13;;;23.90;55.60;;;;;;6119950;23;20406;-83
2021/08/19 08:08:10;;;;;;;2.10;2.00;;;23.90;55.60;;;;;;6095670;23;20173;-83
2021/08/19 08:10:40;;;;;;;1.90;1.67;;;23.90;55.60;;;;;;6119406;23;20413;-83
2021/08/19 08:13:32;;;;;;;1.90;1.80;;;23.90;55.70;;;;;;6118721;23;20484;-83
2021/08/19 08:16:06;;;;;;;2.00;1.90;;;24.00;55.80;;;;;;6095650;23;20449;-82
2021/08/19 08:18:38;;;;;;;2.03;1.83;;;23.90;55.70;;;;;;6119166;23;20366;-82
2021/08/19 08:21:04;;;;;;;1.73;1.63;;;23.90;55.70;;;;;;6119949;23;20377;-84
2021/08/19 08:23:33;;;;;;;2.03;1.83;;;23.90;55.70;;;;;;6095581;23;20397;-83
2021/08/19 08:26:01;;;;;;;2.30;2.10;;;23.90;55.70;;;;;;6095038;23;20177;-84
2021/08/19 08:28:30;;;;;;;2.20;2.03;;;23.90;55.70;;;;;;6094520;23;20393;-84
2021/08/19 08:30:56;;;;;;;1.93;1.77;;;23.90;55.70;;;;;;6094992;23;20390;-83
2021/08/19 08:33:32;;;;;;;2.47;2.27;;;23.90;55.80;;;;;;6094581;23;20421;-83
2021/08/19 08:36:17;;;;;;;2.77;1.80;;;23.90;55.70;;;;;;6118427;23;20405;-83
2021/08/19 08:38:56;;;;;;;2.37;2.17;;;24.00;55.90;;;;;;6093850;23;20453;-83
2021/08/19 08:41:23;;;;;;;2.10;1.83;;;24.00;55.90;;;;;;6093136;23;20387;-84
2021/08/19 08:43:48;;;;;;;1.90;1.70;;;23.90;55.80;;;;;;6094212;23;20437;-83
2021/08/19 08:46:17;;;;;;;2.47;2.00;;;23.90;55.80;;;;;;6093948;23;20386;-83
2021/08/19 08:48:44;;;;;;;1.63;1.50;;;24.00;55.90;;;;;;6114160;23;20171;-83
2021/08/19 08:51:10;;;;;;;2.30;2.10;;;23.90;55.80;;;;;;6183960;23;20379;-83
2021/08/19 08:53:36;;;;;;;2.10;1.90;;;24.00;55.90;;;;;;6182694;23;20482;-83
2021/08/19 08:56:03;;;;;;;1.83;1.63;;;24.00;55.90;;;;;;6182747;23;20375;-83
2021/08/19 08:58:28;;;;;;;2.10;1.90;;;24.00;55.90;;;;;;6182917;23;20135;-83
2021/08/19 09:00:54;;;;;;;1.87;1.67;;;24.00;55.90;;;;;;6183436;23;20394;-83
2021/08/19 09:03:21;;;;;;;2.73;2.13;;;24.00;55.90;;;;;;6208902;23;20148;-83
2021/08/19 09:05:49;;;;;;;2.40;1.90;;;24.00;55.90;;;;;;6183150;23;20159;-83
2021/08/19 09:08:32;;;;;;;2.33;2.13;;;24.00;55.80;;;;;;6193779;23;20409;-82
2021/08/19 09:11:06;;;;;;;2.10;1.90;;;24.00;55.80;;;;;;6182889;23;20373;-82
2021/08/19 09:13:35;;;;;;;2.03;1.80;;;24.00;55.80;;;;;;6183638;23;20450;-82
2021/08/19 09:16:19;;;;;;;2.63;1.90;;;24.00;55.80;;;;;;6183036;23;20386;-83
2021/08/19 09:19:07;;;;;;;2.30;2.10;;;24.00;55.80;;;;;;6209980;23;20351;-83
2021/08/19 09:21:58;;;;;;;2.20;1.80;;;24.00;55.90;;;;;;6184025;23;20430;-83
2021/08/19 09:24:28;;;;;;;2.70;2.07;;;24.00;55.90;;;;;;6183408;23;20426;-83
2021/08/19 09:27:07;;;;;;;2.23;2.03;;;24.00;55.90;;;;;;6183076;23;20387;-83
2021/08/19 09:29:33;;;;;;;2.33;2.13;;;24.00;56.00;;;;;;6182239;23;20382;-84
2021/08/19 09:32:22;;;;;;;2.27;1.90;;;24.00;55.80;;;;;;6182622;23;20450;-83
2021/08/19 09:34:50;;;;;;;1.80;1.70;;;24.00;55.80;;;;;;6181743;23;20375;-84
2021/08/19 09:37:20;;;;;;;2.10;1.87;;;24.00;55.90;;;;;;6208774;23;20371;-84
2021/08/19 09:39:56;;;;;;;2.27;2.07;;;24.00;55.90;;;;;;6208446;23;20372;-83
2021/08/19 09:42:45;;;;;;;2.10;1.90;;;24.00;55.90;;;;;;6182014;23;20377;-83
2021/08/19 09:45:23;;;;;;;2.03;1.87;;;24.00;55.90;;;;;;6181980;23;20367;-83
2021/08/19 09:47:52;;;;;;;2.57;1.80;;;24.00;55.90;;;;;;6181887;23;20386;-83
2021/08/19 09:50:25;;;;;;;1.87;1.77;;;24.00;55.90;;;;;;6132624;23;20355;-83
2021/08/19 09:52:55;;;;;;;2.10;1.87;;;24.00;55.90;;;;;;6176782;23;20458;-83
2021/08/19 09:55:27;;;;;;;1.97;1.77;;;24.00;55.90;;;;;;6208451;23;20371;-83
2021/08/19 09:57:55;;;;;;;2.60;1.93;;;24.00;55.90;;;;;;6208223;23;20381;-83
2021/08/19 10:00:41;;;;;;;2.37;2.00;;;24.00;55.80;;;;;;6208182;23;20400;-83
2021/08/19 10:03:23;;;;;;;1.90;1.70;;;24.00;55.80;;;;;;6184170;23;20447;-83
2021/08/19 10:06:01;;;;;;;2.13;1.90;;;24.00;55.80;;;;;;6182448;23;20387;-84
2021/08/19 10:08:27;;;;;;;1.87;1.57;;;24.00;55.80;;;;;;6188849;23;20542;-83
2021/08/19 10:21:24;;;;;;;1.87;1.67;;;24.00;55.80;;;;;;6003230;24;20455;-84
2021/08/19 10:24:12;;;;;;;2.07;1.87;;;24.00;55.90;;;;;;6003384;24;20789;-84
2021/08/19 10:26:47;;;;;;;1.97;1.77;;;24.00;55.90;;;;;;6064887;23;20387;-84
2021/08/19 10:32:49;;;;;;;2.10;1.90;;;24.00;55.80;;;;;;6087750;23;20933;-84
2021/08/19 10:35:15;;;;;;;2.13;1.80;;;24.00;55.90;;;;;;6086738;23;20391;-83
2021/08/19 10:38:10;;;;;;;1.77;1.67;;;24.00;55.90;;;;;;6088245;23;20371;-83
2021/08/19 10:40:41;;;;;;;2.03;1.70;;;24.00;55.80;;;;;;6087816;23;20442;-84
2021/08/19 10:53:31;;;;;;;2.07;1.97;;;24.00;55.80;;;;;;6059120;23;20435;-84
2021/08/19 10:56:09;;;;;;;2.10;1.90;;;24.00;55.90;;;;;;6059569;23;20371;-83
2021/08/19 10:59:04;;;;;;;2.17;1.83;;;24.00;55.80;;;;;;6059826;23;20376;-84
2021/08/19 11:14:40;;;;;;;2.00;1.80;;;24.00;55.80;;;;;;6006254;24;20454;-82
2021/08/19 11:17:06;;;;;;;2.00;1.80;;;24.00;55.80;;;;;;5981724;24;20382;-83
2021/08/19 11:19:35;;;;;;;2.17;1.97;;;24.00;55.80;;;;;;5981013;24;20386;-82
2021/08/19 11:22:03;;;;;;;2.23;2.03;;;24.00;55.70;;;;;;6005019;24;20257;-83
2021/08/19 11:24:31;;;;;;;2.43;1.90;;;24.00;55.70;;;;;;6004973;24;20374;-83
2021/08/19 11:27:12;;;;;;;2.33;1.97;;;24.00;55.70;;;;;;5935080;24;20391;-83
2021/08/19 11:29:40;;;;;;;2.00;1.80;;;24.10;55.70;;;;;;5949225;24;20480;-83
2021/08/19 11:32:19;;;;;;;2.03;1.83;;;24.10;55.70;;;;;;5948363;24;20427;-83
2021/08/19 11:35:05;;;;;;;2.17;1.97;;;24.10;55.70;;;;;;5949585;24;20390;-83
2021/08/19 11:37:33;;;;;;;1.90;1.73;;;24.10;55.60;;;;;;5948701;24;20391;-83
2021/08/19 11:41:52;;;;;;;;;;;;;;;;;;;;;
2021/08/19 11:47:31;;;;;;;2.53;1.77;;;24.10;55.70;;;;;;6005034;24;20408;-83
2021/08/19 11:49:57;;;;;;;2.53;2.00;;;24.10;55.70;;;;;;6003902;24;20384;-83
2021/08/19 11:52:23;;;;;;;2.90;2.17;;;24.00;55.70;;;;;;6055680;23;20415;-84
2021/08/19 11:54:52;;;;;;;2.20;1.97;;;24.10;55.70;;;;;;6037429;23;20155;-83
2021/08/19 11:57:24;;;;;;;2.27;2.07;;;24.10;55.70;;;;;;6038048;23;20451;-83
2021/08/19 12:00:06;;;;;;;2.87;2.10;;;24.10;55.60;;;;;;6061243;23;20371;-83
2021/08/19 12:06:18;;;;;;;2.00;1.80;;;24.10;55.60;;;;;;6033571;23;20921;-83
2021/08/19 12:15:46;;;;;;;1.90;1.70;;;24.10;55.60;;;;;;6089237;23;20418;-83
2021/08/19 12:18:18;;;;;;;2.40;2.10;;;24.00;55.60;;;;;;6089483;23;20395;-83
2021/08/19 12:20:47;;;;;;;2.40;2.20;;;24.10;55.70;;;;;;6066322;23;20387;-83
2021/08/19 12:23:21;;;;;;;2.00;1.80;;;24.10;55.70;;;;;;6065596;23;20383;-84
2021/08/19 12:25:50;;;;;;;3.40;1.87;;;24.10;55.60;;;;;;6065621;23;20379;-84
2021/08/19 12:28:18;;;;;;;1.97;1.77;;;24.10;55.60;;;;;;6065509;23;20391;-83
2021/08/19 12:31:24;;;;;;;2.03;1.83;;;24.10;55.60;;;;;;6090018;23;20383;-83
2021/08/19 12:34:10;;;;;;;2.03;1.70;;;24.10;55.50;;;;;;6068751;23;20430;-83
2021/08/19 12:36:56;;;;;;;2.17;1.97;;;24.10;55.50;;;;;;6089259;23;20407;-83
2021/08/19 12:39:34;;;;;;;2.37;1.80;;;24.10;55.60;;;;;;6065464;23;20398;-83
2021/08/19 12:42:46;;;;;;;1.67;1.57;;;24.10;55.50;;;;;;6095034;23;20384;-83
2021/08/19 12:45:39;;;;;;;2.10;1.90;;;24.10;55.40;;;;;;6177292;23;20372;-83
2021/08/19 12:48:35;;;;;;;2.37;2.00;;;24.10;55.50;;;;;;6202447;23;20374;-83
2021/08/19 12:51:19;;;;;;;1.90;1.70;;;24.10;55.50;;;;;;6239180;23;20370;-83
2021/08/19 12:54:09;;;;;;;2.00;1.63;;;24.10;55.50;;;;;;6207333;23;20430;-83
2021/08/19 12:56:59;;;;;;;2.60;1.80;;;24.10;55.50;;;;;;6219045;23;20414;-83
2021/08/19 12:59:37;;;;;;;2.20;1.70;;;24.10;55.50;;;;;;6237594;23;20378;-83
2021/08/19 13:02:03;;;;;;;2.07;1.87;;;24.10;55.50;;;;;;6264176;23;20378;-83
2021/08/19 13:04:32;;;;;;;2.37;2.00;;;24.10;55.50;;;;;;6238613;23;20381;-83
2021/08/19 13:06:58;;;;;;;2.00;1.80;;;24.10;55.50;;;;;;6239091;23;20394;-83
2021/08/19 13:09:24;;;;;;;2.10;1.90;;;24.10;55.50;;;;;;6264298;23;20453;-83
2021/08/19 13:11:49;;;;;;;1.83;1.63;;;24.10;55.40;;;;;;6263583;23;20151;-83
2021/08/19 13:14:15;;;;;;;1.80;1.67;;;24.10;55.40;;;;;;6238408;23;20158;-83
2021/08/19 13:16:41;;;;;;;1.60;1.50;;;24.10;55.40;;;;;;6227519;23;20167;-84
2021/08/19 13:19:15;;;;;;;1.83;1.63;;;24.20;55.50;;;;;;6209045;23;20218;-83
2021/08/19 13:21:42;;;;;;;2.33;1.77;;;24.20;55.40;;;;;;6182345;23;20143;-83
2021/08/19 13:24:11;;;;;;;1.73;1.63;;;24.20;55.40;;;;;;6158101;23;20380;-83
2021/08/19 13:26:39;;;;;;;2.07;1.87;;;24.20;55.40;;;;;;6209037;23;20410;-83
2021/08/19 13:29:05;;;;;;;1.80;1.70;;;24.20;55.50;;;;;;6182301;23;20447;-82
2021/08/19 13:38:16;;;;;;;2.07;1.80;;;24.20;55.40;;;;;;6088794;23;20547;-82
2021/08/19 13:40:42;;;;;;;1.73;1.63;;;24.10;55.40;;;;;;6088533;23;20383;-83
2021/08/19 13:44:00;;;;;;;1.73;1.40;;;24.10;55.50;;;;;;6089385;23;20446;-83
2021/08/19 13:46:27;;;;;;;1.60;1.40;;;24.20;55.50;;;;;;6089050;23;20159;-84
2021/08/19 13:48:53;;;;;;;1.83;1.60;;;24.10;55.40;;;;;;6089639;23;20375;-84
2021/08/19 13:51:19;;;;;;;1.40;1.30;;;24.10;55.50;;;;;;6090011;23;20381;-84
2021/08/19 13:53:45;;;;;;;1.50;1.40;;;24.10;55.40;;;;;;6089175;23;20186;-84
2021/08/19 13:56:10;;;;;;;1.87;1.70;;;24.20;55.50;;;;;;6065436;23;20154;-83
2021/08/19 13:58:37;;;;;;;2.27;1.70;;;24.20;55.50;;;;;;6089536;23;20534;-83
2021/08/19 14:01:13;;;;;;;1.57;1.47;;;24.20;55.50;;;;;;6089853;23;20166;-83
2021/08/19 14:03:48;;;;;;;2.10;1.70;;;24.20;55.50;;;;;;6089595;23;20382;-83
2021/08/19 14:06:15;;;;;;;1.93;1.70;;;24.20;55.50;;;;;;6088261;23;20381;-83
2021/08/19 14:08:44;;;;;;;2.30;1.80;;;24.20;55.50;;;;;;6090570;23;20564;-83
2021/08/19 14:11:11;;;;;;;1.60;1.50;;;24.20;55.50;;;;;;6141527;23;20862;-83
2021/08/19 14:13:49;;;;;;;1.80;1.40;;;24.20;55.50;;;;;;6208794;23;20901;-83
2021/08/19 14:16:24;;;;;;;1.60;1.43;;;24.20;55.40;;;;;;6189200;23;20378;-83